Time;durP1;ratioP1;P1;durP2;ratioP2;P2;SDS_P1;SDS_P2;PMS_P1;PMS_P2;Temp;Humidity;BMP_temperature;BMP_pressure;BME280_temperature;BME280_humidity;BME280_pressure;Samples;Min_cycle;Max_cycle;Signal;HPM_P1;HPM_P2
2022/02/04 00:06:05;;;;;;;51.53;22.05;;;;;;;;;;5100837;28;20112;-59
2022/02/04 00:22:41;;;;;;;61.55;28.75;;;;;;;;;;5110845;27;20127;-59
2022/02/04 00:25:24;;;;;;;55.90;25.77;;;;;;;;;;5104000;27;20047;-59
2022/02/04 00:27:52;;;;;;;56.85;26.45;;;;;;;;;;5102368;28;20048;-59
2022/02/04 00:30:25;;;;;;;54.78;26.73;;;;;;;;;;5106896;27;20048;-59
2022/02/04 00:32:54;;;;;;;60.03;27.73;;;;;;;;;;5110174;27;20063;-59
2022/02/04 00:35:43;;;;;;;52.50;27.45;;;;;;;;;;5102711;28;20066;-59
2022/02/04 00:38:22;;;;;;;56.47;28.52;;;;;;;;;;5105335;28;20450;-59
2022/02/04 00:40:53;;;;;;;62.22;30.00;;;;;;;;;;5106473;27;20056;-59
2022/02/04 00:43:20;;;;;;;58.58;29.20;;;;;;;;;;5103473;28;20048;-59
2022/02/04 00:45:54;;;;;;;50.58;28.42;;;;;;;;;;5104458;28;20424;-59
2022/02/04 00:53:32;;;;;;;53.80;25.95;;;;;;;;;;5105048;27;20068;-59
2022/02/04 00:56:10;;;;;;;57.80;27.35;;;;;;;;;;5098880;27;20100;-59
2022/02/04 01:28:23;;;;;;;44.63;22.30;;;;;;;;;;5101972;28;20043;-59
2022/02/04 01:30:49;;;;;;;47.38;23.92;;;;;;;;;;5101614;28;20048;-60
2022/02/04 01:33:15;;;;;;;41.83;22.40;;;;;;;;;;5104958;28;20051;-60
2022/02/04 01:35:42;;;;;;;41.75;21.70;;;;;;;;;;5104739;28;20035;-59
2022/02/04 01:38:08;;;;;;;50.50;22.02;;;;;;;;;;5101026;28;20071;-60
2022/02/04 01:40:34;;;;;;;42.75;22.55;;;;;;;;;;5106953;27;20497;-59
2022/02/04 01:43:00;;;;;;;43.47;21.63;;;;;;;;;;5108852;28;20108;-60
2022/02/04 01:45:27;;;;;;;39.22;22.05;;;;;;;;;;5106945;28;20052;-59
2022/02/04 01:47:56;;;;;;;43.90;23.25;;;;;;;;;;5107011;27;20119;-59
2022/02/04 01:50:23;;;;;;;39.65;24.98;;;;;;;;;;5108142;27;20127;-59
2022/02/04 01:52:50;;;;;;;45.30;26.05;;;;;;;;;;5108135;27;20050;-60
2022/02/04 01:55:16;;;;;;;46.30;26.75;;;;;;;;;;5108081;28;20046;-60
2022/02/04 01:57:42;;;;;;;47.50;27.63;;;;;;;;;;5109581;27;20412;-59
2022/02/04 02:00:09;;;;;;;45.67;28.20;;;;;;;;;;5107249;27;20550;-60
2022/02/04 02:02:35;;;;;;;50.03;28.90;;;;;;;;;;5106515;28;20067;-60
2022/02/04 02:05:01;;;;;;;48.00;29.15;;;;;;;;;;5107175;28;20130;-60
2022/02/04 02:07:29;;;;;;;48.90;28.35;;;;;;;;;;5107690;28;20858;-59
2022/02/04 02:10:09;;;;;;;48.65;26.60;;;;;;;;;;5109884;27;20062;-59
2022/02/04 02:12:51;;;;;;;48.58;27.05;;;;;;;;;;5110258;27;20403;-59
2022/02/04 02:15:30;;;;;;;52.38;26.80;;;;;;;;;;5108524;27;20130;-60
2022/02/04 02:35:13;;;;;;;46.95;24.52;;;;;;;;;;5106089;28;20089;-59
2022/02/04 02:45:33;;;;;;;41.67;22.15;;;;;;;;;;5105855;28;20065;-59
2022/02/04 02:48:17;;;;;;;35.50;21.27;;;;;;;;;;5098918;28;20055;-59
2022/02/04 02:51:15;;;;;;;37.30;23.50;;;;;;;;;;5097933;28;20035;-60
2022/02/04 02:53:59;;;;;;;39.85;21.45;;;;;;;;;;5101186;28;20044;-60
2022/02/04 02:59:15;;;;;;;39.17;20.33;;;;;;;;;;5110971;27;20134;-59
2022/02/04 03:01:46;;;;;;;42.42;20.83;;;;;;;;;;5103372;27;20094;-60
2022/02/04 03:04:15;;;;;;;34.72;20.27;;;;;;;;;;5107929;27;20111;-60
2022/02/04 03:06:42;;;;;;;36.92;19.88;;;;;;;;;;5110321;27;20422;-60
2022/02/04 03:09:08;;;;;;;34.88;18.33;;;;;;;;;;5109424;27;20044;-60
2022/02/04 03:11:34;;;;;;;41.13;20.15;;;;;;;;;;5103254;27;20432;-60
2022/02/04 03:14:00;;;;;;;38.70;21.08;;;;;;;;;;5102992;27;20039;-59
2022/02/04 03:16:27;;;;;;;34.65;18.88;;;;;;;;;;5103653;27;20038;-60
2022/02/04 03:18:55;;;;;;;33.33;18.33;;;;;;;;;;5106386;27;20051;-60
2022/02/04 03:21:36;;;;;;;33.80;18.08;;;;;;;;;;5112191;27;20509;-60
2022/02/04 03:24:08;;;;;;;32.10;17.35;;;;;;;;;;5117411;27;20044;-59
2022/02/04 03:29:00;;;;;;;33.75;17.55;;;;;;;;;;5115944;27;20164;-59
2022/02/04 03:31:31;;;;;;;35.40;17.10;;;;;;;;;;5111745;27;20054;-59
2022/02/04 03:33:57;;;;;;;32.40;16.90;;;;;;;;;;5112996;27;20475;-59
2022/02/04 03:36:23;;;;;;;35.70;17.15;;;;;;;;;;5105368;27;20958;-59
2022/02/04 03:38:49;;;;;;;37.28;17.95;;;;;;;;;;5108176;27;20347;-59
2022/02/04 03:41:15;;;;;;;37.95;17.85;;;;;;;;;;5110874;27;20036;-59
2022/02/04 03:43:41;;;;;;;37.75;17.73;;;;;;;;;;5109587;27;20040;-59
2022/02/04 03:46:08;;;;;;;35.85;17.85;;;;;;;;;;5111745;27;20122;-59
2022/02/04 03:48:34;;;;;;;37.33;16.60;;;;;;;;;;5109572;27;20110;-60
2022/02/04 03:51:01;;;;;;;36.33;16.73;;;;;;;;;;5105282;28;20047;-59
2022/02/04 03:53:27;;;;;;;35.05;17.42;;;;;;;;;;5110575;27;20036;-60
2022/02/04 03:55:53;;;;;;;44.47;19.17;;;;;;;;;;5107036;27;20135;-59
2022/02/04 03:58:19;;;;;;;37.95;19.08;;;;;;;;;;5109287;27;20551;-60
2022/02/04 04:00:45;;;;;;;39.65;19.50;;;;;;;;;;5116053;27;20040;-59
2022/02/04 04:03:11;;;;;;;46.97;21.20;;;;;;;;;;5117122;28;20043;-60
2022/02/04 04:05:43;;;;;;;40.97;21.85;;;;;;;;;;5115563;28;20040;-60
2022/02/04 04:08:10;;;;;;;44.55;20.33;;;;;;;;;;5114646;28;20047;-59
2022/02/04 04:10:40;;;;;;;41.55;19.80;;;;;;;;;;5112982;28;20036;-59
2022/02/04 04:13:06;;;;;;;44.05;20.90;;;;;;;;;;5107450;28;20062;-60
2022/02/04 04:15:33;;;;;;;42.75;20.45;;;;;;;;;;5113602;28;20036;-59
2022/02/04 04:17:59;;;;;;;40.50;18.70;;;;;;;;;;5103176;28;20044;-59
2022/02/04 04:20:26;;;;;;;50.03;20.60;;;;;;;;;;5112340;28;20074;-60
2022/02/04 04:22:54;;;;;;;41.15;19.00;;;;;;;;;;5112555;28;20039;-59
2022/02/04 04:25:20;;;;;;;43.13;19.42;;;;;;;;;;5112289;28;20177;-59
2022/02/04 04:27:47;;;;;;;42.63;18.42;;;;;;;;;;5108861;28;20169;-60
2022/02/04 04:30:15;;;;;;;46.95;18.88;;;;;;;;;;5103278;28;20547;-59
2022/02/04 04:32:42;;;;;;;37.10;18.35;;;;;;;;;;5112179;28;20399;-59
2022/02/04 04:35:11;;;;;;;46.67;20.00;;;;;;;;;;5112865;28;20079;-59
2022/02/04 04:37:43;;;;;;;35.40;15.70;;;;;;;;;;5110118;28;20052;-60
2022/02/04 04:43:08;;;;;;;37.55;15.85;;;;;;;;;;5113019;28;20059;-59
2022/02/04 04:46:16;;;;;;;34.63;16.88;;;;;;;;;;5113306;28;20054;-59
2022/02/04 05:29:51;;;;;;;36.05;16.58;;;;;;;;;;5106134;27;20137;-59
2022/02/04 05:32:18;;;;;;;33.75;15.18;;;;;;;;;;5107084;28;20052;-60
2022/02/04 05:34:47;;;;;;;36.80;15.85;;;;;;;;;;5103315;28;20544;-60
2022/02/04 05:37:14;;;;;;;36.08;15.45;;;;;;;;;;5097417;28;20072;-59
2022/02/04 05:39:53;;;;;;;34.53;16.73;;;;;;;;;;5106308;27;20103;-59
2022/02/04 05:42:24;;;;;;;43.70;15.15;;;;;;;;;;5105144;27;20043;-59
2022/02/04 05:44:57;;;;;;;36.90;14.98;;;;;;;;;;5102211;27;20062;-59
2022/02/04 05:47:24;;;;;;;36.00;13.43;;;;;;;;;;5109575;28;20411;-60
2022/02/04 05:50:08;;;;;;;33.25;14.20;;;;;;;;;;5106754;27;20036;-59
2022/02/04 05:52:53;;;;;;;32.67;12.27;;;;;;;;;;5103949;28;20054;-59
2022/02/04 05:55:38;;;;;;;31.52;13.77;;;;;;;;;;5104724;28;20043;-59
2022/02/04 05:58:24;;;;;;;33.25;11.73;;;;;;;;;;5098208;27;20044;-59
2022/02/04 06:03:45;;;;;;;34.90;11.95;;;;;;;;;;5105313;28;20048;-59
2022/02/04 06:07:03;;;;;;;30.45;11.10;;;;;;;;;;5106549;28;20088;-59
2022/02/04 06:11:49;;;;;;;24.85;10.18;;;;;;;;;;5091601;28;20130;-59
2022/02/04 06:22:23;;;;;;;37.80;10.05;;;;;;;;;;5109954;27;20047;-60
2022/02/04 06:24:50;;;;;;;41.83;11.30;;;;;;;;;;5110559;27;20044;-59
2022/02/04 06:27:16;;;;;;;27.48;8.50;;;;;;;;;;5111209;27;20048;-59
2022/02/04 06:29:43;;;;;;;25.27;9.25;;;;;;;;;;5110132;27;20036;-59
2022/02/04 06:32:09;;;;;;;22.75;7.40;;;;;;;;;;5111515;27;20071;-60
2022/02/04 06:34:36;;;;;;;29.13;10.40;;;;;;;;;;5109643;27;20733;-59
2022/02/04 06:37:02;;;;;;;25.48;7.95;;;;;;;;;;5111542;27;20117;-59
2022/02/04 06:39:28;;;;;;;28.77;9.30;;;;;;;;;;5110020;27;20502;-59
2022/02/04 06:41:55;;;;;;;26.13;8.90;;;;;;;;;;5105617;27;20039;-59
2022/02/04 06:44:21;;;;;;;24.35;7.28;;;;;;;;;;5109618;27;20044;-59
2022/02/04 06:46:48;;;;;;;25.95;9.20;;;;;;;;;;5109168;27;20077;-60
2022/02/04 06:49:14;;;;;;;23.95;7.70;;;;;;;;;;5110925;27;20122;-59
2022/02/04 06:51:40;;;;;;;25.83;7.95;;;;;;;;;;5111061;28;20416;-59
2022/02/04 06:54:07;;;;;;;19.02;8.05;;;;;;;;;;5109779;28;20058;-59
2022/02/04 06:56:35;;;;;;;29.08;8.13;;;;;;;;;;5108910;28;20047;-60
2022/02/04 06:59:01;;;;;;;25.88;8.95;;;;;;;;;;5108205;28;20048;-59
2022/02/04 07:01:29;;;;;;;33.75;9.07;;;;;;;;;;5108597;28;20095;-59
2022/02/04 07:03:55;;;;;;;26.85;8.55;;;;;;;;;;5109671;28;20043;-59
2022/02/04 07:06:22;;;;;;;23.40;7.78;;;;;;;;;;5108565;28;20032;-59
2022/02/04 07:16:40;;;;;;;28.25;7.47;;;;;;;;;;5103570;28;20135;-59
2022/02/04 07:21:51;;;;;;;23.10;7.25;;;;;;;;;;5108323;28;20134;-59
2022/02/04 07:24:17;;;;;;;23.48;7.13;;;;;;;;;;5111112;28;20062;-59
2022/02/04 07:26:43;;;;;;;19.95;7.55;;;;;;;;;;5109797;28;20028;-60
2022/02/04 07:29:09;;;;;;;28.38;6.78;;;;;;;;;;5107099;28;20047;-60
2022/02/04 07:31:39;;;;;;;27.77;6.70;;;;;;;;;;5109905;28;20043;-60
2022/02/04 07:34:15;;;;;;;19.48;5.93;;;;;;;;;;5105631;28;20051;-60
2022/02/04 07:41:59;;;;;;;22.33;6.63;;;;;;;;;;5109490;28;20048;-60
2022/02/04 07:44:25;;;;;;;25.77;5.82;;;;;;;;;;5111567;28;20099;-60
2022/02/04 07:46:51;;;;;;;22.23;6.82;;;;;;;;;;5113661;28;20079;-60
2022/02/04 07:49:18;;;;;;;20.35;5.75;;;;;;;;;;5113447;27;20050;-60
2022/02/04 07:51:45;;;;;;;23.63;6.75;;;;;;;;;;5113064;28;20214;-60
2022/02/04 07:54:11;;;;;;;21.73;5.72;;;;;;;;;;5114012;27;20051;-59
2022/02/04 07:56:37;;;;;;;18.45;5.95;;;;;;;;;;5113647;28;20035;-60
2022/02/04 07:59:08;;;;;;;19.52;5.47;;;;;;;;;;5115925;27;20166;-60
2022/02/04 08:01:34;;;;;;;21.75;6.45;;;;;;;;;;5113738;27;20043;-60
2022/02/04 08:04:08;;;;;;;18.70;6.28;;;;;;;;;;5112664;28;20071;-60
2022/02/04 08:06:40;;;;;;;20.70;7.18;;;;;;;;;;5113586;28;20049;-59
2022/02/04 08:09:17;;;;;;;18.27;6.13;;;;;;;;;;5113471;27;20122;-60
2022/02/04 08:11:59;;;;;;;15.80;6.13;;;;;;;;;;5112383;28;20050;-60
2022/02/04 08:14:44;;;;;;;16.90;6.32;;;;;;;;;;5111592;28;20118;-60
2022/02/04 08:17:26;;;;;;;16.52;5.03;;;;;;;;;;5113806;28;20047;-60
2022/02/04 08:20:34;;;;;;;17.15;4.95;;;;;;;;;;5108530;28;20051;-60
2022/02/04 08:23:04;;;;;;;13.90;5.78;;;;;;;;;;5110367;28;20043;-60
2022/02/04 08:25:59;;;;;;;15.65;4.95;;;;;;;;;;5107420;27;20515;-60
2022/02/04 08:28:57;;;;;;;11.95;4.43;;;;;;;;;;5110180;28;20097;-60
2022/02/04 08:39:02;;;;;;;12.32;5.00;;;;;;;;;;5102817;27;20055;-60
2022/02/04 08:52:13;;;;;;;15.82;6.45;;;;;;;;;;5107125;27;20072;-59
2022/02/04 08:54:55;;;;;;;13.45;6.97;;;;;;;;;;5110666;27;20095;-59
2022/02/04 08:57:37;;;;;;;13.02;7.65;;;;;;;;;;5132001;27;20437;-59
2022/02/04 09:00:20;;;;;;;18.17;8.00;;;;;;;;;;5113946;27;20059;-59
2022/02/04 09:02:55;;;;;;;22.05;8.45;;;;;;;;;;5128130;27;20047;-59
2022/02/04 09:05:29;;;;;;;18.42;9.88;;;;;;;;;;5113336;27;20461;-59
2022/02/04 09:08:14;;;;;;;18.58;8.00;;;;;;;;;;5111195;27;20039;-60
2022/02/04 09:10:41;;;;;;;18.42;9.13;;;;;;;;;;5106998;28;20047;-60
2022/02/04 09:18:37;;;;;;;18.10;9.60;;;;;;;;;;5107903;27;20086;-60
2022/02/04 09:23:31;;;;;;;22.02;11.80;;;;;;;;;;5110364;27;20149;-59
2022/02/04 09:25:58;;;;;;;23.25;11.70;;;;;;;;;;5112046;27;20047;-59
2022/02/04 09:28:24;;;;;;;24.45;11.85;;;;;;;;;;5110058;27;20040;-59
2022/02/04 09:30:50;;;;;;;25.67;13.20;;;;;;;;;;5120490;27;20054;-59
2022/02/04 09:33:17;;;;;;;33.35;14.15;;;;;;;;;;5111662;27;20380;-59
2022/02/04 09:35:43;;;;;;;26.40;14.38;;;;;;;;;;5110559;28;20120;-59
2022/02/04 09:38:10;;;;;;;26.73;15.45;;;;;;;;;;5112451;27;20066;-59
2022/02/04 09:40:36;;;;;;;23.75;14.50;;;;;;;;;;5111139;28;20035;-59
2022/02/04 09:43:03;;;;;;;28.08;16.02;;;;;;;;;;5107265;27;20136;-59
2022/02/04 09:45:31;;;;;;;28.02;16.10;;;;;;;;;;5110531;27;20062;-59
2022/02/04 09:48:06;;;;;;;29.80;16.92;;;;;;;;;;5111229;27;20666;-60
2022/02/04 09:50:35;;;;;;;38.60;19.23;;;;;;;;;;5108867;28;20390;-60
2022/02/04 10:04:36;;;;;;;26.23;18.00;;;;;;;;;;5094959;28;20048;-59
2022/02/04 10:12:51;;;;;;;37.78;18.35;;;;;;;;;;5100651;28;20495;-60
2022/02/04 10:18:05;;;;;;;31.10;18.00;;;;;;;;;;5105371;28;20047;-60
2022/02/04 10:20:32;;;;;;;26.95;17.63;;;;;;;;;;5109141;28;20121;-59
2022/02/04 10:22:59;;;;;;;27.33;16.63;;;;;;;;;;5109775;27;20494;-60
2022/02/04 10:25:31;;;;;;;26.77;16.80;;;;;;;;;;5101324;27;20063;-60
2022/02/04 10:27:57;;;;;;;30.77;16.27;;;;;;;;;;5097440;28;20130;-60
2022/02/04 10:30:23;;;;;;;23.02;16.63;;;;;;;;;;5104633;28;20395;-60
2022/02/04 10:32:50;;;;;;;26.75;16.65;;;;;;;;;;5109116;28;20126;-59
2022/02/04 10:35:19;;;;;;;32.80;17.77;;;;;;;;;;5097229;28;20036;-59
2022/02/04 10:38:11;;;;;;;22.35;14.55;;;;;;;;;;5099154;27;20112;-59
2022/02/04 10:40:52;;;;;;;26.60;14.73;;;;;;;;;;5107050;27;20066;-59
2022/02/04 10:43:33;;;;;;;23.30;14.05;;;;;;;;;;5108882;27;20058;-60
2022/02/04 10:46:12;;;;;;;24.02;14.38;;;;;;;;;;5097992;28;20068;-60
2022/02/04 10:48:59;;;;;;;24.20;15.27;;;;;;;;;;5098831;28;20482;-59
2022/02/04 10:54:34;;;;;;;23.77;15.10;;;;;;;;;;5104034;28;20083;-62
2022/02/04 10:57:10;;;;;;;23.23;15.32;;;;;;;;;;5108949;28;20047;-58
2022/02/04 10:59:58;;;;;;;27.05;14.07;;;;;;;;;;5109972;28;20127;-59
2022/02/04 11:02:39;;;;;;;21.80;13.93;;;;;;;;;;5118077;28;20432;-59
2022/02/04 11:05:17;;;;;;;22.38;11.75;;;;;;;;;;5109168;28;20351;-58
2022/02/04 11:08:15;;;;;;;19.08;12.63;;;;;;;;;;5103806;28;20059;-59
2022/02/04 11:31:03;;;;;;;15.32;10.57;;;;;;;;;;5113529;28;20131;-60
2022/02/04 11:33:46;;;;;;;17.17;11.45;;;;;;;;;;5113363;27;20048;-60
2022/02/04 11:36:35;;;;;;;18.90;11.90;;;;;;;;;;5109719;27;20055;-60
2022/02/04 11:48:03;;;;;;;22.33;12.15;;;;;;;;;;5111282;28;20366;-60
2022/02/04 11:53:56;;;;;;;21.02;12.95;;;;;;;;;;5114202;28;20047;-60
2022/02/04 11:56:22;;;;;;;20.77;13.85;;;;;;;;;;5109579;28;20051;-59
2022/02/04 11:58:59;;;;;;;19.05;13.73;;;;;;;;;;5112199;28;20043;-60
2022/02/04 12:01:39;;;;;;;19.98;12.52;;;;;;;;;;5113580;27;20118;-59
2022/02/04 12:04:19;;;;;;;21.33;13.50;;;;;;;;;;5112224;27;20046;-60
2022/02/04 12:06:45;;;;;;;23.08;13.95;;;;;;;;;;5113456;28;20040;-59
2022/02/04 12:09:12;;;;;;;25.63;14.45;;;;;;;;;;5114414;27;20043;-60
2022/02/04 12:11:40;;;;;;;20.45;13.43;;;;;;;;;;5111693;28;20047;-60
2022/02/04 12:14:09;;;;;;;21.60;13.90;;;;;;;;;;5114023;27;20442;-60
2022/02/04 12:16:37;;;;;;;23.48;14.65;;;;;;;;;;5112798;28;20040;-61
2022/02/04 12:19:06;;;;;;;29.85;16.67;;;;;;;;;;5116920;27;20039;-60
2022/02/04 12:21:42;;;;;;;26.45;15.30;;;;;;;;;;5111644;28;20154;-59
2022/02/04 12:24:29;;;;;;;24.40;15.02;;;;;;;;;;5111031;27;20170;-59
2022/02/04 12:27:15;;;;;;;25.10;14.80;;;;;;;;;;5112761;27;20040;-59
2022/02/04 12:29:41;;;;;;;30.73;16.48;;;;;;;;;;5110337;27;20479;-59
2022/02/04 12:32:08;;;;;;;25.65;16.05;;;;;;;;;;5112078;27;20411;-60
2022/02/04 12:34:35;;;;;;;7.22;2.58;;;;;;;;;;5112945;27;20047;-60
2022/02/04 12:37:02;;;;;;;5.90;1.00;;;;;;;;;;5111002;27;20071;-60
2022/02/04 12:39:32;;;;;;;7.68;0.93;;;;;;;;;;5112779;27;20398;-60
2022/02/04 12:42:01;;;;;;;8.52;1.08;;;;;;;;;;5111124;27;20075;-60
2022/02/04 12:44:28;;;;;;;6.80;0.70;;;;;;;;;;5109806;27;20126;-61
2022/02/04 12:46:56;;;;;;;5.28;0.68;;;;;;;;;;5112440;27;20516;-61
2022/02/04 12:49:25;;;;;;;3.25;0.82;;;;;;;;;;5111881;27;20035;-61
2022/02/04 12:51:57;;;;;;;10.75;1.48;;;;;;;;;;5113512;27;20401;-61
2022/02/04 12:54:38;;;;;;;5.82;0.65;;;;;;;;;;5109176;27;20147;-61
2022/02/04 12:59:58;;;;;;;5.93;0.60;;;;;;;;;;5110764;27;20035;-61
2022/02/04 13:03:05;;;;;;;4.55;0.50;;;;;;;;;;5113448;27;20044;-61
2022/02/04 13:08:19;;;;;;;2.97;0.40;;;;;;;;;;5110163;27;19919;-61
2022/02/04 13:10:55;;;;;;;0.32;0.20;;;;;;;;;;5128028;27;20194;-61
2022/02/04 13:13:23;;;;;;;1.85;0.20;;;;;;;;;;5116778;27;20168;-61
2022/02/04 13:15:51;;;;;;;1.52;0.28;;;;;;;;;;5113832;27;20093;-60
2022/02/04 13:18:17;;;;;;;2.63;0.17;;;;;;;;;;5127222;27;20114;-60
2022/02/04 13:20:45;;;;;;;2.35;0.57;;;;;;;;;;5109748;27;20113;-61
2022/02/04 13:23:15;;;;;;;6.32;0.40;;;;;;;;;;5106257;28;20169;-61
2022/02/04 13:25:43;;;;;;;3.80;0.40;;;;;;;;;;5104758;28;20077;-61
2022/02/04 13:28:11;;;;;;;2.28;0.45;;;;;;;;;;5094988;27;20032;-61
2022/02/04 13:30:40;;;;;;;3.20;0.47;;;;;;;;;;5110262;27;20128;-61
2022/02/04 13:33:15;;;;;;;3.22;0.50;;;;;;;;;;5113654;27;20388;-61
2022/02/04 13:35:42;;;;;;;3.10;0.47;;;;;;;;;;5110625;27;20083;-61
2022/02/04 13:38:25;;;;;;;1.27;0.30;;;;;;;;;;5111845;27;20101;-60
2022/02/04 13:41:02;;;;;;;1.48;0.43;;;;;;;;;;5106932;27;20121;-60
2022/02/04 13:43:37;;;;;;;4.82;0.50;;;;;;;;;;5113981;27;20047;-60
2022/02/04 13:46:13;;;;;;;1.33;0.30;;;;;;;;;;5103910;27;20055;-60
2022/02/04 13:48:57;;;;;;;4.68;0.63;;;;;;;;;;5109215;27;20055;-60
2022/02/04 13:51:40;;;;;;;4.13;0.60;;;;;;;;;;5112356;27;20086;-60
2022/02/04 13:54:17;;;;;;;2.63;0.20;;;;;;;;;;5112205;27;20043;-60
2022/02/04 13:56:57;;;;;;;1.65;0.22;;;;;;;;;;5102399;28;20042;-60
2022/02/04 13:59:43;;;;;;;0.57;0.40;;;;;;;;;;5110844;28;20040;-60
2022/02/04 14:02:11;;;;;;;2.50;0.22;;;;;;;;;;5106382;28;20939;-60
2022/02/04 14:04:37;;;;;;;0.68;0.30;;;;;;;;;;5101388;28;20483;-60
2022/02/04 14:07:11;;;;;;;1.40;0.30;;;;;;;;;;5103557;27;20035;-60
2022/02/04 14:09:44;;;;;;;1.27;0.38;;;;;;;;;;5106118;28;20504;-60
2022/02/04 14:12:15;;;;;;;0.65;0.20;;;;;;;;;;5105919;28;20574;-60
2022/02/04 14:14:41;;;;;;;2.60;0.30;;;;;;;;;;5107057;28;20058;-61
2022/02/04 14:17:07;;;;;;;2.25;0.30;;;;;;;;;;5108732;27;20053;-61
2022/02/04 14:19:33;;;;;;;2.53;0.32;;;;;;;;;;5109076;27;20050;-60
2022/02/04 14:21:59;;;;;;;1.60;0.35;;;;;;;;;;5107945;27;20337;-60
2022/02/04 14:24:27;;;;;;;1.10;0.30;;;;;;;;;;5108520;27;20039;-61
2022/02/04 14:26:55;;;;;;;2.08;0.30;;;;;;;;;;5110066;27;20040;-60
2022/02/04 14:29:28;;;;;;;0.82;0.30;;;;;;;;;;5106001;27;20050;-61
2022/02/04 14:32:08;;;;;;;1.75;0.35;;;;;;;;;;5109736;28;20050;-61
2022/02/04 14:53:22;;;;;;;12.40;1.13;;;;;;;;;;5110673;28;20040;-60
2022/02/04 15:01:21;;;;;;;7.22;1.08;;;;;;;;;;5109364;28;20080;-60
2022/02/04 15:04:14;;;;;;;10.63;0.77;;;;;;;;;;5105891;28;20170;-60
2022/02/04 15:06:38;;;;;;;8.55;0.88;;;;;;;;;;5106926;28;20046;-60
2022/02/04 15:09:08;;;;;;;12.40;1.45;;;;;;;;;;5112207;28;20056;-60
2022/02/04 15:11:35;;;;;;;9.50;1.20;;;;;;;;;;5108083;28;20071;-60
2022/02/04 15:14:04;;;;;;;6.90;0.93;;;;;;;;;;5106825;28;20885;-60
2022/02/04 15:16:30;;;;;;;7.40;0.80;;;;;;;;;;5110647;28;20047;-60
2022/02/04 15:18:56;;;;;;;11.50;1.58;;;;;;;;;;5109318;28;20073;-60
2022/02/04 15:21:23;;;;;;;11.00;1.50;;;;;;;;;;5110214;28;20039;-60
2022/02/04 15:23:52;;;;;;;8.70;0.98;;;;;;;;;;5107911;28;20047;-60
2022/02/04 15:26:19;;;;;;;11.43;1.15;;;;;;;;;;5108750;28;20786;-61
2022/02/04 15:28:49;;;;;;;11.80;1.00;;;;;;;;;;5105204;28;20043;-60
2022/02/04 15:31:24;;;;;;;5.57;1.08;;;;;;;;;;5109492;28;20487;-60
2022/02/04 15:33:52;;;;;;;8.07;1.95;;;;;;;;;;5110261;28;20743;-60
2022/02/04 15:36:24;;;;;;;9.55;1.17;;;;;;;;;;5109562;28;20059;-60
2022/02/04 15:38:52;;;;;;;9.73;1.08;;;;;;;;;;5107038;27;20028;-60
2022/02/04 15:41:18;;;;;;;6.60;1.15;;;;;;;;;;5109351;28;20637;-60
2022/02/04 15:43:49;;;;;;;7.47;1.42;;;;;;;;;;5111123;28;20130;-60
2022/02/04 15:49:11;;;;;;;10.77;1.00;;;;;;;;;;5109665;28;20043;-60
2022/02/04 15:59:54;;;;;;;;;;;;;;;;;;5107349;28;20144;-60
2022/02/04 16:05:10;;;;;;;14.60;1.73;;;;;;;;;;5106849;28;20043;-60
2022/02/04 16:07:37;;;;;;;3.97;0.80;;;;;;;;;;5124629;27;20055;-60
2022/02/04 16:10:20;;;;;;;11.27;1.60;;;;;;;;;;5105930;28;20451;-60
2022/02/04 16:12:53;;;;;;;6.13;0.90;;;;;;;;;;5105253;27;20143;-59
2022/02/04 16:15:33;;;;;;;9.35;1.20;;;;;;;;;;5112867;28;20122;-60
2022/02/04 16:18:04;;;;;;;12.60;1.40;;;;;;;;;;5112748;28;20371;-60
2022/02/04 16:23:35;;;;;;;8.60;1.23;;;;;;;;;;5125460;27;20086;-59
2022/02/04 16:28:46;;;;;;;8.40;1.10;;;;;;;;;;5107220;28;20055;-60
2022/02/04 16:31:14;;;;;;;10.43;1.20;;;;;;;;;;5108563;28;20070;-60
2022/02/04 16:33:41;;;;;;;4.07;0.90;;;;;;;;;;5107367;28;20039;-60
2022/02/04 16:36:13;;;;;;;9.40;1.10;;;;;;;;;;5106005;28;20492;-60
2022/02/04 16:38:40;;;;;;;9.23;1.10;;;;;;;;;;5106487;28;20428;-59
2022/02/04 16:41:10;;;;;;;10.07;1.30;;;;;;;;;;5105471;28;20055;-59
2022/02/04 16:43:37;;;;;;;8.02;1.00;;;;;;;;;;5110983;28;20056;-60
2022/02/04 16:46:06;;;;;;;5.53;1.23;;;;;;;;;;5110689;28;20086;-59
2022/02/04 16:48:33;;;;;;;11.40;1.90;;;;;;;;;;5111347;28;20502;-59
2022/02/04 16:51:00;;;;;;;11.75;3.13;;;;;;;;;;5108366;28;20043;-60
2022/02/04 16:53:27;;;;;;;10.20;4.47;;;;;;;;;;5108932;27;20043;-60
2022/02/04 16:55:54;;;;;;;11.52;1.80;;;;;;;;;;5112458;27;20047;-60
2022/02/04 16:58:21;;;;;;;12.05;1.80;;;;;;;;;;5114351;27;20032;-60
2022/02/04 17:00:47;;;;;;;9.88;2.00;;;;;;;;;;5113742;27;20051;-60
2022/02/04 17:03:13;;;;;;;12.57;2.05;;;;;;;;;;5112233;28;20070;-59
2022/02/04 17:08:12;;;;;;;15.75;3.15;;;;;;;;;;5109465;28;20043;-60
2022/02/04 17:10:42;;;;;;;15.38;3.53;;;;;;;;;;5111982;28;20139;-60
2022/02/04 17:13:08;;;;;;;20.15;2.28;;;;;;;;;;5111682;28;20393;-59
2022/02/04 17:15:35;;;;;;;13.88;2.28;;;;;;;;;;5129492;27;20131;-60
2022/02/04 17:18:03;;;;;;;16.13;3.45;;;;;;;;;;5112681;28;20058;-60
2022/02/04 17:20:29;;;;;;;20.35;2.13;;;;;;;;;;5111192;28;20355;-60
2022/02/04 17:22:56;;;;;;;16.75;2.10;;;;;;;;;;5111889;28;20036;-60
2022/02/04 17:25:29;;;;;;;23.35;3.53;;;;;;;;;;5104723;28;20050;-59
2022/02/04 17:27:56;;;;;;;14.57;2.60;;;;;;;;;;5109569;28;20130;-59
2022/02/04 17:30:23;;;;;;;27.83;4.50;;;;;;;;;;5112766;28;20035;-59
2022/02/04 17:32:50;;;;;;;13.25;2.75;;;;;;;;;;5112957;28;20062;-59
2022/02/04 17:35:17;;;;;;;22.17;3.97;;;;;;;;;;5104969;28;20356;-60
2022/02/04 17:37:43;;;;;;;28.98;3.50;;;;;;;;;;5103679;28;20044;-59
2022/02/04 17:40:11;;;;;;;20.48;2.78;;;;;;;;;;5105641;27;20055;-60
2022/02/04 17:42:40;;;;;;;24.25;3.03;;;;;;;;;;5107027;28;20123;-60
2022/02/04 17:45:09;;;;;;;18.73;3.50;;;;;;;;;;5110298;27;20054;-60
2022/02/04 17:47:35;;;;;;;25.73;4.03;;;;;;;;;;5108515;27;20130;-60
2022/02/04 17:50:07;;;;;;;21.15;3.47;;;;;;;;;;5111107;27;20070;-60
2022/02/04 17:52:41;;;;;;;18.50;2.95;;;;;;;;;;5113037;27;20415;-59
2022/02/04 17:55:13;;;;;;;32.75;3.97;;;;;;;;;;5114924;27;20054;-60
2022/02/04 17:57:44;;;;;;;22.83;3.58;;;;;;;;;;5111817;27;20545;-59
2022/02/04 18:06:06;;;;;;;;;;;;;;;;;;5112411;28;20118;-60
2022/02/04 18:08:18;;;;;;;12.13;1.75;;;;;;;;;;5109991;28;19934;-60
2022/02/04 18:10:44;;;;;;;9.75;1.58;;;;;;;;;;5110309;28;20412;-60
2022/02/04 18:13:17;;;;;;;5.78;1.35;;;;;;;;;;5111677;28;20050;-82
2022/02/04 18:15:46;;;;;;;;;;;;;;;;;;5089981;28;20039;-60
2022/02/04 18:18:14;;;;;;;5.88;1.42;;;;;;;;;;5111723;28;19920;-59
2022/02/04 18:20:41;;;;;;;7.97;1.25;;;;;;;;;;5111396;28;20097;-59
2022/02/04 18:23:08;;;;;;;14.93;1.48;;;;;;;;;;5111108;28;20411;-59
2022/02/04 18:25:35;;;;;;;6.63;1.38;;;;;;;;;;5111765;28;20425;-60
2022/02/04 18:28:02;;;;;;;13.77;1.65;;;;;;;;;;5111172;28;20046;-60
2022/02/04 18:30:35;;;;;;;10.98;1.55;;;;;;;;;;5110912;28;20040;-60
2022/02/04 18:33:10;;;;;;;13.07;3.35;;;;;;;;;;5110118;28;20035;-60
2022/02/04 18:35:42;;;;;;;13.38;2.40;;;;;;;;;;5111870;28;20493;-60
2022/02/04 18:38:15;;;;;;;15.90;2.63;;;;;;;;;;5110401;28;20042;-60
2022/02/04 18:41:06;;;;;;;8.95;1.95;;;;;;;;;;5111267;28;20134;-60
2022/02/04 18:43:40;;;;;;;11.07;2.05;;;;;;;;;;5110825;28;20052;-60
2022/02/04 18:46:45;;;;;;;9.52;1.42;;;;;;;;;;5110363;28;20047;-60
2022/02/04 18:49:16;;;;;;;8.50;2.60;;;;;;;;;;5108169;28;20040;-60
2022/02/04 18:52:05;;;;;;;21.45;3.13;;;;;;;;;;5108196;28;20681;-60
2022/02/04 18:54:54;;;;;;;14.13;2.80;;;;;;;;;;5109411;28;20050;-60
2022/02/04 18:57:22;;;;;;;15.27;1.83;;;;;;;;;;5105968;27;20104;-59
2022/02/04 18:59:56;;;;;;;20.73;3.53;;;;;;;;;;5110734;28;20127;-59
2022/02/04 19:02:24;;;;;;;26.85;3.20;;;;;;;;;;5110917;28;20043;-60
2022/02/04 19:04:57;;;;;;;21.02;3.20;;;;;;;;;;5110162;28;20035;-59
2022/02/04 19:07:35;;;;;;;26.90;2.50;;;;;;;;;;5110962;28;20567;-60
2022/02/04 19:10:01;;;;;;;17.10;2.55;;;;;;;;;;5108875;28;20044;-61
2022/02/04 19:12:34;;;;;;;20.73;3.13;;;;;;;;;;5108622;28;20044;-60
2022/02/04 19:15:23;;;;;;;19.73;4.00;;;;;;;;;;5110893;28;20145;-59
2022/02/04 19:17:54;;;;;;;23.38;4.05;;;;;;;;;;5114606;28;20414;-59
2022/02/04 19:20:31;;;;;;;27.67;4.72;;;;;;;;;;5110388;28;20123;-59
2022/02/04 19:23:00;;;;;;;18.38;3.72;;;;;;;;;;5108848;28;20050;-60
2022/02/04 19:25:33;;;;;;;20.60;3.25;;;;;;;;;;5111669;28;20040;-59
2022/02/04 19:27:59;;;;;;;30.35;3.60;;;;;;;;;;5109592;28;20055;-60
2022/02/04 19:30:26;;;;;;;32.45;4.57;;;;;;;;;;5113187;28;20134;-60
2022/02/04 19:32:53;;;;;;;30.48;5.10;;;;;;;;;;5114230;28;20051;-60
2022/02/04 19:35:19;;;;;;;22.88;4.38;;;;;;;;;;5110924;28;20056;-59
2022/02/04 19:37:46;;;;;;;19.05;3.00;;;;;;;;;;5107280;28;20047;-60
2022/02/04 19:40:12;;;;;;;18.75;2.70;;;;;;;;;;5114602;27;20498;-60
2022/02/04 19:42:43;;;;;;;22.38;4.10;;;;;;;;;;5114025;27;20124;-59
2022/02/04 19:45:17;;;;;;;22.35;3.38;;;;;;;;;;5115188;27;20047;-59
2022/02/04 19:47:49;;;;;;;;;;;;;;;;;;5116237;27;20054;-59
2022/02/04 19:53:17;;;;;;;27.08;4.55;;;;;;;;;;5111289;27;20150;-60